createdAt,value
2023-05-13T10:10:16.301Z,27.90
2023-05-13T10:12:44.646Z,27.90
2023-05-13T10:15:13.157Z,28.10
2023-05-13T10:17:42.484Z,27.80
2023-05-13T10:20:10.974Z,27.70
2023-05-13T10:22:40.059Z,28.30
2023-05-13T10:25:09.124Z,28.80
2023-05-13T10:27:40.347Z,29.10
2023-05-13T10:30:10.587Z,29.10
2023-05-13T10:32:40.264Z,29.10
2023-05-13T10:35:13.129Z,28.70
2023-05-13T10:38:00.837Z,28.50
2023-05-13T15:16:14.302Z,28.80
2023-05-13T15:18:42.427Z,28.90
2023-05-13T15:21:10.544Z,29.00
2023-05-13T15:23:38.640Z,28.80
2023-05-13T15:26:08.169Z,28.80
2023-05-13T15:28:36.258Z,28.40
2023-05-13T15:31:04.525Z,28.10
2023-05-13T15:33:33.148Z,27.60
2023-05-13T15:36:01.433Z,27.10
2023-05-13T15:38:29.520Z,27.00
2023-05-13T15:40:57.636Z,27.20
2023-05-13T15:43:27.130Z,27.20
2023-05-13T15:45:55.968Z,27.20
2023-05-13T15:48:24.304Z,27.40
2023-05-13T15:50:52.401Z,26.90
2023-05-13T15:53:20.801Z,26.90
2023-05-13T15:55:48.927Z,26.90
2023-05-13T15:58:16.986Z,26.80
2023-05-13T16:00:46.405Z,27.10
2023-05-13T16:03:15.280Z,27.10
2023-05-13T16:08:12.168Z,27.00
2023-05-13T16:10:40.219Z,27.10
2023-05-13T16:13:08.512Z,27.20
2023-05-13T16:15:36.979Z,27.30
2023-05-13T16:18:07.155Z,27.40
2023-05-13T16:20:35.265Z,27.40
2023-05-13T16:23:03.385Z,27.30
2023-05-13T16:25:31.442Z,27.10
2023-05-13T16:27:59.508Z,27.20
2023-05-13T16:30:27.562Z,27.20
2023-05-13T16:32:55.784Z,27.20
2023-05-13T16:35:25.355Z,26.90
2023-05-13T16:37:53.459Z,26.80
2023-05-13T16:40:21.755Z,26.40
2023-05-13T16:42:49.924Z,26.10
2023-05-13T16:45:18.170Z,26.00
2023-05-13T16:47:46.292Z,25.90
2023-05-13T16:50:14.400Z,25.90
2023-05-13T16:52:43.864Z,25.40
2023-05-13T16:55:11.983Z,25.30
2023-05-13T16:57:40.052Z,25.30
2023-05-13T17:00:09.302Z,25.40
2023-05-13T17:02:37.525Z,25.80
2023-05-13T17:05:06.419Z,26.00
2023-05-13T17:07:34.500Z,26.00
2023-05-13T17:10:04.046Z,25.70
2023-05-13T17:12:32.423Z,25.40
2023-05-13T17:15:00.510Z,25.30
2023-05-13T17:17:28.565Z,25.00
2023-05-13T17:19:57.682Z,24.10
2023-05-13T17:22:25.822Z,23.30
2023-05-13T17:24:53.921Z,23.10
2023-05-13T17:27:23.345Z,23.40
2023-05-13T17:29:51.365Z,23.40
2023-05-13T17:32:19.450Z,23.30
2023-05-13T17:34:47.498Z,23.30
2023-05-13T17:37:15.608Z,23.40
2023-05-13T17:42:12.036Z,23.10
2023-05-13T17:44:41.719Z,23.00
2023-05-13T17:47:09.792Z,23.00
2023-05-13T17:49:37.862Z,23.00
2023-05-13T17:52:06.906Z,22.70
2023-05-13T17:54:34.927Z,22.40
2023-05-13T17:57:03.032Z,22.40
2023-05-13T17:59:31.088Z,22.00
2023-05-13T18:02:00.605Z,21.60
2023-05-13T18:04:28.710Z,21.40
2023-05-13T18:06:56.806Z,21.50
2023-05-13T18:09:24.856Z,21.60
2023-05-13T18:11:52.918Z,21.70
2023-05-13T18:14:20.990Z,21.70
2023-05-13T18:16:49.132Z,21.80
2023-05-13T18:19:18.721Z,21.80
2023-05-13T18:21:46.806Z,21.60
2023-05-13T18:24:14.910Z,21.60
2023-05-13T18:26:43.029Z,21.60
2023-05-13T18:29:11.090Z,21.60
2023-05-13T18:31:39.208Z,21.60
2023-05-13T18:34:07.326Z,21.70
2023-05-13T18:36:36.817Z,21.80
2023-05-13T18:39:04.927Z,21.80
2023-05-13T18:41:32.976Z,21.70
2023-05-13T18:44:01.068Z,21.80
2023-05-13T18:46:29.358Z,21.70
2023-05-13T18:48:58.932Z,21.70
2023-05-13T18:51:27.120Z,21.70
2023-05-13T18:53:56.619Z,21.60
2023-05-13T18:56:24.897Z,21.70
2023-05-13T18:58:53.006Z,21.60
2023-05-13T19:01:21.492Z,21.70
2023-05-13T19:03:49.906Z,21.70
2023-05-13T19:06:18.115Z,21.70
2023-05-13T19:08:46.215Z,21.70
2023-05-13T19:11:15.634Z,21.70
2023-05-13T19:13:47.658Z,21.70
2023-05-13T19:16:16.316Z,21.30
2023-05-13T19:18:44.473Z,20.90
2023-05-13T19:21:12.613Z,20.80
2023-05-13T19:23:40.727Z,20.80
2023-05-13T19:26:09.488Z,20.80
2023-05-13T19:28:39.746Z,20.80
2023-05-13T19:31:08.246Z,20.70
2023-05-13T19:33:37.296Z,20.30
2023-05-13T19:36:05.721Z,20.30
2023-05-13T19:38:34.008Z,20.10
2023-05-13T19:41:02.130Z,20.00
2023-05-13T19:43:30.254Z,19.90
2023-05-13T19:45:59.847Z,19.80
2023-05-13T19:48:29.694Z,19.70
2023-05-13T19:50:58.510Z,19.60
2023-05-13T19:53:27.463Z,19.60
2023-05-13T19:55:56.686Z,19.50
2023-05-13T19:58:24.820Z,19.60
2023-05-13T20:00:52.958Z,19.60
2023-05-13T20:03:22.516Z,19.70
2023-05-13T20:05:51.697Z,19.70
2023-05-13T20:08:20.537Z,19.70
2023-05-13T20:10:48.602Z,19.70
2023-05-13T20:13:16.718Z,19.70
2023-05-13T20:15:45.253Z,19.70
2023-05-13T20:18:13.489Z,19.70
2023-05-13T20:20:42.942Z,19.70
2023-05-13T20:23:13.124Z,19.70
2023-05-13T20:25:42.423Z,19.60
2023-05-13T20:28:10.673Z,19.50
2023-05-13T20:30:41.647Z,19.50
2023-05-13T20:33:10.110Z,19.40
2023-05-13T20:35:38.333Z,19.30
2023-05-13T20:38:07.732Z,19.30
2023-05-13T20:40:35.838Z,19.20
2023-05-13T20:43:05.034Z,19.10
2023-05-13T21:40:08.814Z,18.00
2023-05-13T21:42:36.913Z,18.00
2023-05-13T21:45:05.279Z,17.90
2023-05-13T21:47:34.812Z,17.60
2023-05-13T21:50:02.989Z,17.60
2023-05-13T21:52:31.074Z,17.60
2023-05-13T21:54:59.224Z,17.60
2023-05-13T21:57:27.366Z,17.50
2023-05-13T21:59:55.604Z,17.50
2023-05-13T22:02:23.726Z,17.40
2023-05-13T22:04:53.217Z,17.40
2023-05-13T22:07:21.315Z,17.40
2023-05-13T22:09:50.459Z,17.30
2023-05-13T22:12:18.658Z,17.30
2023-05-13T22:14:46.729Z,17.20
2023-05-13T22:17:14.936Z,17.20
2023-05-13T22:19:43.090Z,17.10
2023-05-13T22:22:12.582Z,17.10
2023-05-13T22:24:40.727Z,17.00
2023-05-13T22:27:10.088Z,17.00
2023-05-13T22:29:38.160Z,17.00
2023-05-13T22:32:06.916Z,17.00
2023-05-13T22:34:35.026Z,17.00
2023-05-13T22:37:03.259Z,17.00
2023-05-13T22:39:32.694Z,16.90
2023-05-13T22:42:00.797Z,16.90
2023-05-13T22:44:28.887Z,16.80
2023-05-13T22:46:56.944Z,16.80
2023-05-13T22:49:25.142Z,16.70
2023-05-13T22:51:53.190Z,16.70
2023-05-13T22:54:21.255Z,16.60
2023-05-13T22:56:50.641Z,16.50
2023-05-13T22:59:18.725Z,16.50
2023-05-13T23:01:46.786Z,16.40
2023-05-13T23:04:14.975Z,16.30
2023-05-13T23:06:43.036Z,16.10
2023-05-13T23:09:11.091Z,16.10
2023-05-13T23:11:39.116Z,16.00
2023-05-13T23:14:09.229Z,16.10
2023-05-13T23:16:37.505Z,16.10
2023-05-13T23:19:06.136Z,16.10
2023-05-13T23:21:34.224Z,16.00
2023-05-13T23:24:02.331Z,16.00
2023-05-13T23:26:30.378Z,16.10
2023-05-13T23:28:58.423Z,16.00
2023-05-13T23:31:27.900Z,16.00
2023-05-13T23:33:55.920Z,16.00
2023-05-13T23:36:23.962Z,16.00
2023-05-13T23:38:52.011Z,16.00
2023-05-13T23:41:20.144Z,16.00
2023-05-13T23:43:48.229Z,16.00
2023-05-13T23:46:16.367Z,16.00
2023-05-13T23:48:45.757Z,15.90
2023-05-13T23:51:14.014Z,15.90
2023-05-13T23:53:42.071Z,15.90
2023-05-13T23:56:10.122Z,15.90
2023-05-13T23:58:38.135Z,15.90
